Time;durP1;ratioP1;P1;durP2;ratioP2;P2;SDS_P1;SDS_P2;PMS_P1;PMS_P2;Temp;Humidity;BMP_temperature;BMP_pressure;BME280_temperature;BME280_humidity;BME280_pressure;Samples;Min_cycle;Max_cycle;Signal;HPM_P1;HPM_P2
2021/12/28 00:00:06;;;;;;;413.90;143.73;;;;;;;4.70;95.74;99081.53;338526;29;853;-69
2021/12/28 00:00:17;;;;;;;415.85;145.07;;;;;;;4.70;95.58;99089.31;339760;28;909;-69
2021/12/28 00:00:27;;;;;;;418.25;146.50;;;;;;;4.71;95.66;99083.22;338359;29;922;-69
2021/12/28 00:00:38;;;;;;;419.50;146.52;;;;;;;4.70;95.82;99084.13;337816;29;1380;-69
2021/12/28 00:00:48;;;;;;;419.60;147.03;;;;;;;4.71;95.43;99091.00;336306;29;895;-69
2021/12/28 00:01:04;;;;;;;417.45;145.88;;;;;;;4.72;95.74;99079.75;338973;28;1204;-69
2021/12/28 00:01:15;;;;;;;413.84;144.68;;;;;;;4.73;95.50;99089.22;340658;28;878;-69
2021/12/28 00:01:27;;;;;;;414.95;145.48;;;;;;;4.74;95.79;99085.75;341151;28;865;-69
2021/12/28 00:01:37;;;;;;;417.90;147.13;;;;;;;4.75;95.72;99082.25;341216;28;909;-69
2021/12/28 00:01:48;;;;;;;417.60;145.80;;;;;;;4.77;95.43;99084.78;338341;29;862;-69
2021/12/28 00:01:59;;;;;;;416.65;146.30;;;;;;;4.77;95.21;99085.63;338258;29;897;-69
2021/12/28 00:02:09;;;;;;;417.17;146.85;;;;;;;4.78;95.57;99079.56;338471;29;1040;-69
2021/12/28 00:02:19;;;;;;;418.23;148.07;;;;;;;4.79;95.58;99083.84;338294;29;1547;-69
2021/12/28 00:02:30;;;;;;;419.53;148.10;;;;;;;4.79;95.22;99081.25;339729;29;873;-69
2021/12/28 00:02:41;;;;;;;421.20;147.77;;;;;;;4.78;94.88;99079.56;340865;28;896;-69
2021/12/28 00:02:51;;;;;;;420.00;147.00;;;;;;;4.77;95.56;99085.63;339842;29;854;-69
2021/12/28 00:03:02;;;;;;;423.08;146.13;;;;;;;4.76;95.36;99083.13;341277;28;914;-69
2021/12/28 00:03:12;;;;;;;422.53;147.53;;;;;;;4.75;95.65;99081.41;340946;28;1385;-69
2021/12/28 00:03:23;;;;;;;421.05;145.63;;;;;;;4.75;95.50;99084.00;341017;28;1206;-69
2021/12/28 00:03:34;;;;;;;415.63;144.43;;;;;;;4.75;95.35;99081.41;342425;28;942;-69
2021/12/28 00:03:45;;;;;;;415.35;143.65;;;;;;;4.74;95.25;99080.56;339549;29;1282;-69
2021/12/28 00:03:55;;;;;;;415.85;145.18;;;;;;;4.74;95.54;99077.97;339787;29;976;-69
2021/12/28 00:04:07;;;;;;;417.40;146.23;;;;;;;4.75;95.27;99077.06;338404;29;894;-69
2021/12/28 00:04:17;;;;;;;415.38;144.13;;;;;;;4.78;95.49;99081.28;339692;29;1367;-69
2021/12/28 00:04:27;;;;;;;414.73;143.23;;;;;;;4.78;95.61;99083.88;339678;29;827;-69
2021/12/28 00:04:38;;;;;;;413.00;142.07;;;;;;;4.78;95.43;99076.13;339693;29;1169;-69
2021/12/28 00:04:48;;;;;;;413.87;142.97;;;;;;;4.79;95.23;99083.84;341027;28;916;-69
2021/12/28 00:04:58;;;;;;;414.00;144.65;;;;;;;4.80;95.42;99080.38;338356;29;1297;-69
2021/12/28 00:05:09;;;;;;;416.47;144.73;;;;;;;4.81;95.28;99076.03;340975;28;1402;-69
2021/12/28 00:05:20;;;;;;;416.73;144.50;;;;;;;4.82;95.67;99077.75;341010;28;932;-69
2021/12/28 00:05:30;;;;;;;417.70;143.77;;;;;;;4.81;95.55;99082.06;337248;29;906;-69
2021/12/28 00:05:41;;;;;;;416.00;144.07;;;;;;;4.81;95.81;99076.88;338726;29;864;-69
2021/12/28 00:05:52;;;;;;;417.08;144.48;;;;;;;4.81;95.47;99079.47;337123;29;1008;-69
2021/12/28 00:06:03;;;;;;;416.30;143.73;;;;;;;4.81;95.73;99083.81;336872;29;818;-69
2021/12/28 00:06:14;;;;;;;416.48;142.63;;;;;;;4.79;95.69;99081.25;341278;28;1322;-69
2021/12/28 00:06:24;;;;;;;415.20;141.88;;;;;;;4.78;95.47;99076.97;342261;28;1402;-69
2021/12/28 00:06:35;;;;;;;415.27;142.55;;;;;;;4.78;95.68;99082.16;339629;29;810;-69
2021/12/28 00:06:45;;;;;;;414.43;142.73;;;;;;;4.76;95.39;99081.38;339716;29;999;-68
2021/12/28 00:06:55;;;;;;;412.63;142.18;;;;;;;4.77;95.60;99077.84;340959;28;1218;-68
2021/12/28 00:07:06;;;;;;;412.37;142.50;;;;;;;4.76;95.71;99080.53;339626;29;886;-68
2021/12/28 00:07:17;;;;;;;416.50;143.70;;;;;;;4.76;95.50;99078.78;342449;28;1132;-68
2021/12/28 00:07:27;;;;;;;415.58;144.80;;;;;;;4.77;95.72;99083.03;339844;29;987;-68
2021/12/28 00:07:38;;;;;;;415.47;145.13;;;;;;;4.76;95.78;99078.78;336983;29;1468;-68
2021/12/28 00:07:48;;;;;;;415.25;144.80;;;;;;;4.76;95.53;99083.13;339394;29;1318;-69
2021/12/28 00:07:59;;;;;;;417.53;145.53;;;;;;;4.76;95.93;99083.13;341036;28;826;-69
2021/12/28 00:08:09;;;;;;;416.70;144.73;;;;;;;4.75;95.59;99081.41;342332;28;1544;-69
2021/12/28 00:08:19;;;;;;;416.73;146.13;;;;;;;4.74;95.83;99085.75;338349;29;914;-69
2021/12/28 00:08:30;;;;;;;416.58;145.98;;;;;;;4.74;95.64;99077.97;339803;29;1357;-69
2021/12/28 00:08:41;;;;;;;417.77;145.77;;;;;;;4.74;95.67;99085.75;339595;29;825;-68
2021/12/28 00:08:52;;;;;;;416.08;144.55;;;;;;;4.73;95.82;99084.03;342319;28;865;-68
2021/12/28 00:09:02;;;;;;;418.00;146.53;;;;;;;4.75;95.67;99091.78;338004;28;1228;-68
2021/12/28 00:09:13;;;;;;;416.42;147.75;;;;;;;4.74;95.59;99083.16;337131;29;914;-69
2021/12/28 00:09:23;;;;;;;418.10;149.50;;;;;;;4.74;95.88;99080.56;339708;29;886;-68
2021/12/28 00:09:34;;;;;;;418.52;145.48;;;;;;;4.75;95.97;99087.44;340974;28;862;-68
2021/12/28 00:09:44;;;;;;;418.80;143.27;;;;;;;4.77;96.00;99090.81;339781;29;996;-70
2021/12/28 00:09:54;;;;;;;416.63;139.82;;;;;;;4.78;95.89;99084.75;340989;28;1465;-69
2021/12/28 00:10:07;;;;;;;414.23;140.47;;;;;;;4.79;95.78;99086.44;340820;28;888;-68
2021/12/28 00:10:18;;;;;;;416.75;141.98;;;;;;;4.81;96.00;99087.25;341038;28;1413;-68
2021/12/28 00:10:28;;;;;;;414.95;141.00;;;;;;;4.82;95.98;99088.97;339622;28;1177;-68
2021/12/28 00:10:39;;;;;;;413.30;139.87;;;;;;;4.83;95.87;99090.66;336472;29;1300;-69
2021/12/28 00:10:50;;;;;;;409.33;139.20;;;;;;;4.85;96.30;99088.88;337393;29;925;-69
2021/12/28 00:11:00;;;;;;;410.45;139.52;;;;;;;4.86;96.61;99095.75;339209;28;809;-69
2021/12/28 00:11:11;;;;;;;411.67;139.80;;;;;;;4.88;96.33;99090.53;338149;29;869;-68
2021/12/28 00:11:21;;;;;;;414.00;139.40;;;;;;;4.89;96.57;99094.84;339740;28;1184;-68
2021/12/28 00:11:32;;;;;;;412.85;140.40;;;;;;;4.88;96.37;99087.94;339667;28;1346;-68
2021/12/28 00:11:42;;;;;;;412.20;141.73;;;;;;;4.88;96.43;99088.81;340809;28;1324;-68
2021/12/28 00:11:53;;;;;;;410.35;140.75;;;;;;;4.89;96.41;99087.06;342508;28;870;-69
2021/12/28 00:12:03;;;;;;;411.23;141.03;;;;;;;4.87;96.49;99084.50;342118;28;896;-69
2021/12/28 00:12:14;;;;;;;415.63;140.88;;;;;;;4.87;96.64;99089.69;339484;28;1426;-69
2021/12/28 00:12:24;;;;;;;419.50;144.47;;;;;;;4.87;96.48;99087.09;338364;29;986;-69
2021/12/28 00:12:37;;;;;;;420.10;145.02;;;;;;;4.85;96.37;99086.28;338321;29;957;-69
2021/12/28 00:12:47;;;;;;;419.35;146.45;;;;;;;4.84;96.49;99087.19;339590;29;948;-68
2021/12/28 00:12:58;;;;;;;420.57;144.63;;;;;;;4.84;96.16;99087.19;335889;29;839;-68
2021/12/28 00:13:08;;;;;;;422.70;144.80;;;;;;;4.79;95.84;99091.63;337152;29;818;-68
2021/12/28 00:13:19;;;;;;;424.67;145.30;;;;;;;4.74;95.51;99085.75;338243;29;822;-68
2021/12/28 00:13:30;;;;;;;425.55;149.43;;;;;;;4.71;95.39;99091.00;338482;29;870;-69
2021/12/28 00:13:41;;;;;;;425.63;149.95;;;;;;;4.70;95.11;99089.31;341023;28;1356;-69
2021/12/28 00:13:58;;;;;;;425.05;148.38;;;;;;;4.68;95.10;99091.94;342250;28;814;-69
2021/12/28 00:14:09;;;;;;;425.15;148.35;;;;;;;4.66;95.14;99082.50;339473;29;1303;-69
2021/12/28 00:14:22;;;;;;;424.00;147.60;;;;;;;4.65;95.45;99085.97;340816;28;1160;-69
2021/12/28 00:14:38;;;;;;;421.80;145.93;;;;;;;4.64;95.07;99089.44;342503;28;976;-69
2021/12/28 00:15:01;;;;;;;419.35;144.55;;;;;;;4.64;95.21;99086.88;339790;29;865;-69
2021/12/28 00:15:47;;;;;;;415.73;144.50;;;;;;;4.62;95.16;99089.50;340886;28;897;-69
2021/12/28 00:16:13;;;;;;;417.30;146.25;;;;;;;4.63;95.30;99090.34;338719;28;798;-69
2021/12/28 00:16:30;;;;;;;414.70;143.70;;;;;;;4.64;95.16;99094.63;338205;29;898;-69
2021/12/28 00:18:07;;;;;;;413.88;140.95;;;;;;;4.65;95.35;99096.34;342093;28;715;-69
2021/12/28 00:18:18;;;;;;;414.03;140.83;;;;;;;4.65;95.37;99096.34;340727;28;1410;-69
2021/12/28 00:18:28;;;;;;;414.45;140.93;;;;;;;4.66;95.57;99101.47;340583;28;885;-69
2021/12/28 00:18:39;;;;;;;413.67;141.57;;;;;;;4.66;95.40;99098.03;339747;29;1096;-69
2021/12/28 00:18:49;;;;;;;412.25;141.90;;;;;;;4.67;95.35;99102.34;341042;28;1420;-69
2021/12/28 00:19:00;;;;;;;413.87;143.80;;;;;;;4.66;95.53;99096.31;338330;29;1391;-69
2021/12/28 00:19:10;;;;;;;416.67;144.68;;;;;;;4.66;95.48;99087.69;339502;28;1269;-69
2021/12/28 00:19:20;;;;;;;417.43;144.23;;;;;;;4.67;95.58;99099.75;337010;29;865;-69
2021/12/28 00:19:31;;;;;;;415.00;144.27;;;;;;;4.65;95.44;99102.38;339425;28;1243;-69
2021/12/28 00:19:41;;;;;;;414.00;144.97;;;;;;;4.66;95.55;99109.25;339576;28;1188;-69
2021/12/28 00:19:51;;;;;;;412.70;144.38;;;;;;;4.65;95.60;99101.53;338411;28;1221;-69
2021/12/28 00:20:03;;;;;;;416.27;145.73;;;;;;;4.62;95.64;99101.59;339593;29;810;-69
2021/12/28 00:20:13;;;;;;;416.35;145.07;;;;;;;4.61;95.41;99102.47;340675;28;1345;-69
2021/12/28 00:20:24;;;;;;;419.00;145.77;;;;;;;4.60;95.47;99104.22;341015;28;814;-69
2021/12/28 00:20:39;;;;;;;418.08;144.70;;;;;;;4.58;94.89;99108.59;339476;29;822;-69
2021/12/28 00:20:52;;;;;;;419.30;145.82;;;;;;;4.56;95.12;99107.78;335915;29;910;-69
2021/12/28 00:21:03;;;;;;;420.85;147.77;;;;;;;4.55;94.56;99106.06;338891;28;858;-69
2021/12/28 00:21:14;;;;;;;418.75;148.30;;;;;;;4.53;94.72;99112.19;340197;28;1618;-69
2021/12/28 00:21:24;;;;;;;419.90;148.93;;;;;;;4.52;94.91;99110.47;338289;29;818;-69
2021/12/28 00:21:35;;;;;;;419.67;148.95;;;;;;;4.49;94.58;99113.16;338207;28;1303;-70
2021/12/28 00:21:45;;;;;;;419.53;147.60;;;;;;;4.48;94.80;99107.13;342160;28;1189;-69
2021/12/28 00:21:56;;;;;;;417.83;145.97;;;;;;;4.47;94.68;99112.34;342316;28;1277;-69
2021/12/28 00:22:06;;;;;;;416.98;143.95;;;;;;;4.45;94.79;99114.09;338646;28;1377;-69
2021/12/28 00:22:16;;;;;;;420.87;145.33;;;;;;;4.43;94.58;99110.69;336907;29;1144;-69
2021/12/28 00:22:27;;;;;;;421.67;147.20;;;;;;;4.43;94.80;99114.16;342129;28;1271;-69
2021/12/28 00:22:37;;;;;;;421.57;148.10;;;;;;;4.43;94.71;99108.13;343623;28;865;-69
2021/12/28 00:22:47;;;;;;;422.17;147.82;;;;;;;4.39;94.68;99103.88;342196;28;1333;-69
2021/12/28 00:22:58;;;;;;;419.77;146.83;;;;;;;4.40;94.55;99115.94;339715;29;1012;-69
2021/12/28 00:23:13;;;;;;;420.45;147.80;;;;;;;4.39;94.53;99109.06;341013;28;1510;-69
2021/12/28 00:23:27;;;;;;;421.67;148.23;;;;;;;4.37;94.74;99110.84;340996;28;870;-69
2021/12/28 00:23:40;;;;;;;422.73;147.93;;;;;;;4.35;94.60;99113.47;342122;28;1343;-69
2021/12/28 00:23:51;;;;;;;424.14;147.96;;;;;;;4.34;94.12;99112.63;339440;28;1415;-69
2021/12/28 00:24:02;;;;;;;421.77;146.77;;;;;;;4.35;94.22;99116.06;341038;28;854;-69
2021/12/28 00:24:12;;;;;;;423.20;146.40;;;;;;;4.33;94.41;99116.09;343870;28;1273;-69
2021/12/28 00:24:22;;;;;;;424.53;148.30;;;;;;;4.31;94.39;99112.72;343554;28;881;-69
2021/12/28 00:24:35;;;;;;;424.85;148.88;;;;;;;4.33;94.57;99112.69;343561;28;893;-69
2021/12/28 00:24:47;;;;;;;420.90;147.38;;;;;;;4.32;94.32;99109.25;340899;28;959;-69
2021/12/28 00:24:58;;;;;;;418.52;145.80;;;;;;;4.33;94.37;99110.91;339549;28;1458;-69
2021/12/28 00:25:10;;;;;;;416.40;145.47;;;;;;;4.34;94.37;99114.34;340815;28;1351;-70
2021/12/28 00:25:21;;;;;;;417.90;149.00;;;;;;;4.32;94.42;99114.44;338249;29;906;-69
2021/12/28 00:25:31;;;;;;;420.80;149.77;;;;;;;4.33;94.53;99118.69;339948;28;1237;-69
2021/12/28 00:25:41;;;;;;;419.95;147.80;;;;;;;4.33;94.39;99116.09;338401;29;1348;-69
2021/12/28 00:25:52;;;;;;;419.53;145.60;;;;;;;4.32;94.32;99119.59;336927;29;834;-69
2021/12/28 00:26:03;;;;;;;419.02;146.27;;;;;;;4.33;94.70;99116.09;339130;28;1609;-69
2021/12/28 00:26:14;;;;;;;420.85;146.25;;;;;;;4.33;94.46;99113.50;340113;28;870;-69
2021/12/28 00:26:24;;;;;;;418.23;145.55;;;;;;;4.34;94.27;99117.81;342122;28;830;-69
2021/12/28 00:26:35;;;;;;;415.83;145.20;;;;;;;4.35;94.72;99116.91;339493;29;880;-69
2021/12/28 00:26:45;;;;;;;413.17;144.57;;;;;;;4.34;94.55;99115.22;339545;29;959;-69
2021/12/28 00:26:56;;;;;;;418.20;146.70;;;;;;;4.34;94.50;99112.63;335546;29;1469;-70
2021/12/28 00:27:06;;;;;;;419.17;144.63;;;;;;;4.32;94.76;99119.59;338183;29;833;-69
2021/12/28 00:27:17;;;;;;;418.83;145.00;;;;;;;4.31;94.77;99111.88;339530;29;1045;-69
2021/12/28 00:27:28;;;;;;;416.25;144.88;;;;;;;4.33;94.92;99120.47;340973;28;1279;-70
2021/12/28 00:27:38;;;;;;;421.50;148.10;;;;;;;4.30;95.11;99120.53;340799;28;881;-69
2021/12/28 00:27:49;;;;;;;423.00;149.20;;;;;;;4.30;94.89;99117.94;339289;29;1248;-69
2021/12/28 00:27:59;;;;;;;426.80;149.33;;;;;;;4.29;95.07;99114.50;338324;29;901;-70
2021/12/28 00:28:10;;;;;;;421.93;147.47;;;;;;;4.30;95.22;99121.38;337965;29;1401;-69
2021/12/28 00:28:20;;;;;;;421.33;145.53;;;;;;;4.31;95.25;99112.72;340699;28;2356;-69
2021/12/28 00:28:31;;;;;;;416.20;145.10;;;;;;;4.31;95.09;99112.72;340988;28;809;-69
2021/12/28 00:28:42;;;;;;;415.95;145.68;;;;;;;4.33;94.97;99115.28;339338;28;1407;-69
2021/12/28 00:28:53;;;;;;;412.65;144.57;;;;;;;4.34;95.21;99119.53;339539;29;896;-69
2021/12/28 00:29:03;;;;;;;411.92;143.73;;;;;;;4.33;95.36;99118.69;338055;28;1220;-69
2021/12/28 00:29:13;;;;;;;413.57;144.17;;;;;;;4.32;94.99;99119.59;340779;28;1235;-69
2021/12/28 00:29:24;;;;;;;418.67;145.77;;;;;;;4.31;94.83;99112.72;339793;29;996;-69
2021/12/28 00:29:34;;;;;;;419.50;146.37;;;;;;;4.31;94.78;99117.91;336663;29;1395;-69
2021/12/28 00:29:46;;;;;;;418.60;145.82;;;;;;;4.30;94.95;99116.19;336919;29;1292;-69
2021/12/28 00:29:57;;;;;;;418.95;146.20;;;;;;;4.29;94.81;99117.09;336923;29;1506;-69
2021/12/28 00:30:07;;;;;;;417.88;146.15;;;;;;;4.29;95.15;99119.69;336961;29;929;-69
2021/12/28 00:30:18;;;;;;;414.95;145.40;;;;;;;4.28;94.73;99117.97;339461;29;932;-69
2021/12/28 00:30:29;;;;;;;416.60;144.88;;;;;;;4.28;94.70;99114.53;340726;28;1045;-69
2021/12/28 00:30:39;;;;;;;418.42;147.50;;;;;;;4.27;94.73;99116.28;342597;28;1212;-69
2021/12/28 00:30:50;;;;;;;419.73;147.63;;;;;;;4.29;94.81;99119.69;337117;29;1007;-69
2021/12/28 00:31:00;;;;;;;419.02;147.88;;;;;;;4.28;94.73;99115.38;335662;28;1332;-69
2021/12/28 00:31:13;;;;;;;422.37;147.67;;;;;;;4.27;94.68;99113.69;336651;29;1369;-69
2021/12/28 00:31:24;;;;;;;423.40;148.23;;;;;;;4.26;94.97;99119.75;336671;29;1293;-69
2021/12/28 00:31:34;;;;;;;421.75;147.70;;;;;;;4.25;94.69;99115.44;339530;29;908;-69
2021/12/28 00:31:44;;;;;;;421.20;147.23;;;;;;;4.25;94.67;99118.03;338221;29;1335;-69
2021/12/28 00:31:55;;;;;;;419.13;146.47;;;;;;;4.25;94.99;99110.28;341018;28;920;-70
2021/12/28 00:32:05;;;;;;;420.42;147.57;;;;;;;4.25;94.96;99118.03;336907;29;1061;-69
2021/12/28 00:32:16;;;;;;;422.65;148.90;;;;;;;4.23;94.51;99119.81;336845;29;993;-69
2021/12/28 00:32:26;;;;;;;424.73;150.00;;;;;;;4.25;94.65;99112.88;339332;29;1176;-69
2021/12/28 00:32:37;;;;;;;421.65;147.73;;;;;;;4.23;95.00;99109.47;340907;28;1352;-69
2021/12/28 00:32:52;;;;;;;422.70;146.73;;;;;;;4.24;94.93;99115.50;335617;29;1441;-69
2021/12/28 00:33:04;;;;;;;422.08;147.15;;;;;;;4.23;95.03;99113.78;335853;29;898;-69
2021/12/28 00:33:16;;;;;;;420.67;149.35;;;;;;;4.21;94.71;99113.81;338464;29;842;-68
2021/12/28 00:33:26;;;;;;;421.48;150.50;;;;;;;4.23;94.86;99112.06;339667;29;928;-68
2021/12/28 00:33:37;;;;;;;420.45;150.57;;;;;;;4.22;95.01;99110.34;339384;28;1370;-68
2021/12/28 00:33:47;;;;;;;418.73;148.07;;;;;;;4.24;95.00;99115.50;339479;29;900;-69
2021/12/28 00:33:58;;;;;;;416.07;146.33;;;;;;;4.24;95.03;99113.75;337094;29;825;-68
2021/12/28 00:34:09;;;;;;;416.55;144.57;;;;;;;4.24;94.89;99111.16;340628;28;1338;-68
2021/12/28 00:34:19;;;;;;;420.10;145.45;;;;;;;4.25;94.69;99110.28;342133;28;952;-68
2021/12/28 00:34:31;;;;;;;427.03;147.53;;;;;;;4.25;94.86;99109.44;342097;28;1272;-68
2021/12/28 00:34:42;;;;;;;427.30;148.40;;;;;;;4.24;95.11;99116.34;336740;29;910;-68
2021/12/28 00:34:52;;;;;;;422.37;145.43;;;;;;;4.25;94.99;99118.03;340901;28;778;-68
2021/12/28 00:35:03;;;;;;;418.60;144.23;;;;;;;4.25;94.69;99117.19;339667;29;912;-68
2021/12/28 00:35:13;;;;;;;417.40;144.63;;;;;;;4.24;94.84;99116.34;340767;28;941;-68
2021/12/28 00:35:25;;;;;;;416.90;145.18;;;;;;;4.24;94.99;99111.16;339607;29;861;-68
2021/12/28 00:35:37;;;;;;;418.45;146.07;;;;;;;4.27;94.98;99111.09;336845;29;945;-68
2021/12/28 00:35:48;;;;;;;415.50;144.02;;;;;;;4.26;94.82;99109.38;336350;29;1378;-68
2021/12/28 00:35:58;;;;;;;414.33;142.73;;;;;;;4.29;95.10;99105.88;337619;29;1346;-68
2021/12/28 00:36:09;;;;;;;410.90;141.17;;;;;;;4.30;95.19;99116.19;336583;28;1205;-68
2021/12/28 00:36:19;;;;;;;409.98;140.43;;;;;;;4.31;95.08;99107.53;341873;28;1392;-68
2021/12/28 00:36:29;;;;;;;407.50;139.47;;;;;;;4.36;95.43;99104.81;342212;28;1185;-69
2021/12/28 00:36:40;;;;;;;408.08;138.27;;;;;;;4.39;95.52;99109.06;338128;28;1223;-69
2021/12/28 00:36:50;;;;;;;407.70;137.77;;;;;;;4.41;95.58;99102.13;338237;29;866;-69
2021/12/28 00:37:01;;;;;;;405.07;136.40;;;;;;;4.42;95.66;99104.66;342348;28;940;-69
2021/12/28 00:37:11;;;;;;;404.63;135.07;;;;;;;4.46;95.62;99110.63;342192;28;898;-69
2021/12/28 00:37:21;;;;;;;406.90;136.43;;;;;;;4.47;95.97;99109.75;340553;28;1242;-69
2021/12/28 00:37:32;;;;;;;407.85;138.00;;;;;;;4.49;95.99;99115.72;339046;29;1550;-69
2021/12/28 00:37:42;;;;;;;406.87;138.07;;;;;;;4.50;96.18;99107.94;336988;29;1208;-69
2021/12/28 00:37:53;;;;;;;406.15;136.07;;;;;;;4.52;96.39;99107.88;339525;29;810;-69
2021/12/28 00:38:04;;;;;;;409.90;135.87;;;;;;;4.53;96.26;99112.19;338209;29;960;-69
2021/12/28 00:38:21;;;;;;;411.27;137.90;;;;;;;4.55;96.40;99115.59;339496;29;936;-69
2021/12/28 00:38:32;;;;;;;406.73;137.60;;;;;;;4.55;96.43;99118.19;339546;29;885;-69
2021/12/28 00:38:43;;;;;;;410.30;138.05;;;;;;;4.55;96.51;99111.25;338069;29;1313;-69
2021/12/28 00:38:53;;;;;;;412.88;138.90;;;;;;;4.55;96.53;99106.06;342279;28;1043;-69
2021/12/28 00:39:04;;;;;;;414.83;139.53;;;;;;;4.55;96.74;99118.19;340862;28;873;-69
2021/12/28 00:39:15;;;;;;;412.70;139.32;;;;;;;4.55;96.28;99116.44;340845;28;953;-69
2021/12/28 00:39:25;;;;;;;410.60;138.43;;;;;;;4.55;96.55;99110.41;341045;28;919;-69
2021/12/28 00:39:36;;;;;;;408.37;138.17;;;;;;;4.55;96.49;99113.84;339700;29;882;-69
2021/12/28 00:39:46;;;;;;;407.15;137.60;;;;;;;4.56;96.30;99117.28;339372;29;1365;-69
2021/12/28 00:39:56;;;;;;;412.10;138.70;;;;;;;4.56;96.43;99122.47;337001;29;927;-69
2021/12/28 00:40:07;;;;;;;413.70;139.50;;;;;;;4.55;96.53;99111.25;338154;29;948;-69
2021/12/28 00:40:17;;;;;;;415.10;140.32;;;;;;;4.56;96.49;99114.69;339467;29;1577;-69
2021/12/28 00:40:28;;;;;;;411.93;138.63;;;;;;;4.55;96.87;99113.84;340926;28;928;-69
2021/12/28 00:40:38;;;;;;;415.08;138.82;;;;;;;4.56;96.92;99120.72;337654;29;1489;-69
2021/12/28 00:40:51;;;;;;;414.90;140.40;;;;;;;4.56;96.50;99122.47;335446;29;1324;-69
2021/12/28 00:41:02;;;;;;;414.67;141.90;;;;;;;4.56;96.66;99117.28;336466;29;936;-69
2021/12/28 00:41:13;;;;;;;413.00;141.45;;;;;;;4.57;96.59;99117.25;337210;28;1581;-69
2021/12/28 00:41:23;;;;;;;412.43;141.07;;;;;;;4.57;96.68;99119.00;338035;29;799;-68
2021/12/28 00:41:33;;;;;;;410.67;138.32;;;;;;;4.58;96.83;99125.88;340719;28;1310;-68
2021/12/28 00:41:44;;;;;;;410.40;138.70;;;;;;;4.57;96.96;99119.00;338142;29;1186;-68
2021/12/28 00:41:56;;;;;;;411.63;138.35;;;;;;;4.57;96.99;99119.84;339627;29;1208;-68
2021/12/28 00:42:08;;;;;;;412.15;140.60;;;;;;;4.57;96.59;99121.59;340716;28;1305;-68
2021/12/28 00:42:18;;;;;;;410.33;140.07;;;;;;;4.57;96.93;99119.00;337913;28;1296;-69
2021/12/28 00:42:28;;;;;;;411.57;141.43;;;;;;;4.58;96.94;99118.09;338483;29;963;-69
2021/12/28 00:42:39;;;;;;;412.67;141.48;;;;;;;4.59;97.09;99122.41;337030;29;823;-69
2021/12/28 00:42:49;;;;;;;415.10;141.40;;;;;;;4.57;96.80;99116.41;338112;29;1409;-69
2021/12/28 00:43:00;;;;;;;416.13;140.75;;;;;;;4.59;97.15;99127.59;340873;28;874;-69
2021/12/28 00:43:10;;;;;;;416.83;140.37;;;;;;;4.56;96.67;99123.31;339581;28;1193;-69
2021/12/28 00:43:21;;;;;;;414.92;141.02;;;;;;;4.56;97.03;99123.31;339527;29;794;-69
2021/12/28 00:43:32;;;;;;;413.37;141.93;;;;;;;4.55;96.61;99120.78;338310;29;905;-69
2021/12/28 00:43:42;;;;;;;412.40;141.93;;;;;;;4.56;96.65;99122.47;338188;29;849;-70
2021/12/28 00:43:53;;;;;;;412.17;141.27;;;;;;;4.54;96.57;99119.06;338274;29;890;-68
2021/12/28 00:44:03;;;;;;;411.27;139.95;;;;;;;4.53;96.64;99123.41;338133;29;914;-68
2021/12/28 00:44:14;;;;;;;412.83;141.43;;;;;;;4.51;96.76;99116.56;340712;28;1259;-68
2021/12/28 00:44:25;;;;;;;416.65;141.68;;;;;;;4.50;96.37;99112.25;339533;29;833;-68
2021/12/28 00:44:35;;;;;;;419.25;141.48;;;;;;;4.49;96.31;99121.78;342297;28;880;-68
2021/12/28 00:44:46;;;;;;;418.73;141.30;;;;;;;4.49;96.47;99115.72;339491;29;881;-68
2021/12/28 00:44:56;;;;;;;416.88;141.60;;;;;;;4.49;96.53;99118.31;338356;29;969;-68
2021/12/28 00:45:07;;;;;;;415.87;141.93;;;;;;;4.48;96.15;99116.63;336779;29;1217;-68
2021/12/28 00:45:17;;;;;;;415.63;142.93;;;;;;;4.47;96.55;99120.97;338109;29;1294;-68
2021/12/28 00:45:28;;;;;;;415.77;142.93;;;;;;;4.46;95.95;99124.44;339453;29;846;-68
2021/12/28 00:45:38;;;;;;;412.57;140.90;;;;;;;4.47;95.92;99127.88;334991;29;1355;-69
2021/12/28 00:45:49;;;;;;;411.40;140.10;;;;;;;4.47;96.16;99117.50;335112;29;1360;-69
2021/12/28 00:46:00;;;;;;;408.77;139.23;;;;;;;4.48;95.93;99124.41;335121;29;920;-69
2021/12/28 00:46:10;;;;;;;410.30;141.27;;;;;;;4.47;95.98;99118.38;336480;29;889;-69
2021/12/28 00:46:21;;;;;;;408.67;140.52;;;;;;;4.48;96.31;99124.41;339623;29;815;-69
2021/12/28 00:46:31;;;;;;;410.13;139.77;;;;;;;4.47;95.89;99115.78;337932;29;1077;-69
2021/12/28 00:46:41;;;;;;;412.20;140.30;;;;;;;4.49;95.93;99120.91;336918;29;1201;-69
2021/12/28 00:46:52;;;;;;;412.07;139.50;;;;;;;4.48;96.15;99121.81;338297;29;853;-69
2021/12/28 00:47:02;;;;;;;415.30;140.93;;;;;;;4.49;95.96;99118.31;340808;28;814;-69
2021/12/28 00:47:13;;;;;;;414.50;139.63;;;;;;;4.49;96.01;99119.19;340662;28;1947;-69
2021/12/28 00:47:23;;;;;;;411.45;139.73;;;;;;;4.49;96.07;99113.16;338140;29;1032;-69
2021/12/28 00:47:34;;;;;;;409.80;138.23;;;;;;;4.52;96.06;99119.09;339416;28;1382;-69
2021/12/28 00:47:44;;;;;;;410.25;137.50;;;;;;;4.53;96.16;99114.78;339265;29;1288;-69
2021/12/28 00:47:54;;;;;;;414.60;138.63;;;;;;;4.54;96.00;99119.06;337037;29;1352;-69
2021/12/28 00:48:05;;;;;;;412.52;138.40;;;;;;;4.54;95.82;99119.06;340739;28;833;-69
2021/12/28 00:48:15;;;;;;;411.83;139.10;;;;;;;4.54;95.93;99109.56;339452;29;826;-69
2021/12/28 00:48:26;;;;;;;411.75;139.00;;;;;;;4.54;95.91;99119.91;339520;29;885;-69
2021/12/28 00:48:36;;;;;;;413.60;139.67;;;;;;;4.54;96.21;99113.88;338192;29;1137;-69
2021/12/28 00:48:47;;;;;;;412.50;139.98;;;;;;;4.54;96.04;99112.16;337002;29;911;-69
2021/12/28 00:48:57;;;;;;;412.90;140.77;;;;;;;4.54;96.07;99119.06;337074;29;827;-69
2021/12/28 00:49:07;;;;;;;412.10;141.07;;;;;;;4.53;96.19;99120.81;336906;29;1029;-69
2021/12/28 00:49:18;;;;;;;413.57;142.13;;;;;;;4.55;96.26;99118.19;338102;29;829;-69
2021/12/28 00:49:28;;;;;;;410.90;141.27;;;;;;;4.55;96.30;99118.19;339728;28;932;-69
2021/12/28 00:49:39;;;;;;;411.90;141.77;;;;;;;4.55;96.56;99113.00;343415;28;1212;-69
2021/12/28 00:49:49;;;;;;;413.00;140.45;;;;;;;4.56;96.40;99114.69;343477;28;952;-70
2021/12/28 00:50:00;;;;;;;413.47;140.47;;;;;;;4.56;96.25;99112.09;343918;28;829;-70
2021/12/28 00:50:11;;;;;;;411.33;139.63;;;;;;;4.55;96.26;99111.25;343357;28;917;-70
2021/12/28 00:50:22;;;;;;;411.58;139.65;;;;;;;4.56;96.48;99112.97;342252;28;1067;-70
2021/12/28 00:50:32;;;;;;;413.43;140.60;;;;;;;4.54;96.31;99112.16;339269;28;1189;-70
2021/12/28 00:50:44;;;;;;;413.33;141.15;;;;;;;4.55;96.26;99115.59;339615;28;1284;-70
2021/12/28 00:50:55;;;;;;;412.38;142.23;;;;;;;4.54;96.58;99113.88;335007;29;840;-70
2021/12/28 00:51:05;;;;;;;414.10;142.57;;;;;;;4.54;96.54;99112.16;336015;29;870;-68
2021/12/28 00:51:16;;;;;;;414.20;142.02;;;;;;;4.53;96.80;99112.19;337542;29;909;-68
2021/12/28 00:51:26;;;;;;;412.23;140.83;;;;;;;4.54;96.21;99113.88;340812;28;857;-69
2021/12/28 00:51:37;;;;;;;410.58;139.73;;;;;;;4.53;96.56;99115.63;342372;28;904;-68
2021/12/28 00:51:47;;;;;;;412.70;141.55;;;;;;;4.53;96.40;99118.22;340193;28;1235;-68
2021/12/28 00:51:58;;;;;;;415.20;143.23;;;;;;;4.54;96.50;99113.88;338145;29;1012;-68
2021/12/28 00:52:08;;;;;;;413.77;143.40;;;;;;;4.53;96.48;99117.38;340786;28;1323;-69
2021/12/28 00:52:18;;;;;;;412.37;143.07;;;;;;;4.52;96.03;99115.66;339445;29;1307;-69
2021/12/28 00:52:29;;;;;;;413.47;142.80;;;;;;;4.53;96.17;99113.03;338297;29;885;-70
2021/12/28 00:52:39;;;;;;;413.80;142.77;;;;;;;4.54;96.31;99116.47;338078;29;941;-70
2021/12/28 00:52:50;;;;;;;414.92;144.13;;;;;;;4.52;96.25;99115.66;335363;29;1363;-70
2021/12/28 00:53:00;;;;;;;415.40;144.17;;;;;;;4.53;96.25;99122.56;335530;29;838;-70
2021/12/28 00:53:11;;;;;;;417.73;144.15;;;;;;;4.52;96.10;99116.50;338207;29;784;-70